sensor_id;sensor_type;location;lat;lon;timestamp;P1;durP1;ratioP1;P2;durP2;ratioP2
40755;SDS011;26461;45.630;9.418;2022-09-09T00:05:18;7.90;;;3.75;;
40755;SDS011;26461;45.630;9.418;2022-09-09T00:08:42;9.13;;;3.72;;
40755;SDS011;26461;45.630;9.418;2022-09-09T00:12:11;4.07;;;2.40;;
40755;SDS011;26461;45.630;9.418;2022-09-09T00:15:28;8.98;;;2.35;;
40755;SDS011;26461;45.630;9.418;2022-09-09T00:22:32;5.68;;;3.10;;
40755;SDS011;26461;45.630;9.418;2022-09-09T00:25:58;14.95;;;4.15;;
40755;SDS011;26461;45.630;9.418;2022-09-09T00:29:13;12.07;;;2.25;;
40755;SDS011;26461;45.630;9.418;2022-09-09T00:32:32;12.23;;;7.05;;
40755;SDS011;26461;45.630;9.418;2022-09-09T00:35:47;6.45;;;3.05;;
40755;SDS011;26461;45.630;9.418;2022-09-09T00:39:02;8.18;;;4.03;;
40755;SDS011;26461;45.630;9.418;2022-09-09T00:42:14;7.97;;;4.15;;
40755;SDS011;26461;45.630;9.418;2022-09-09T00:45:54;5.80;;;2.72;;
40755;SDS011;26461;45.630;9.418;2022-09-09T00:55:54;5.15;;;2.60;;
40755;SDS011;26461;45.630;9.418;2022-09-09T00:59:32;5.97;;;2.55;;
40755;SDS011;26461;45.630;9.418;2022-09-09T01:12:51;6.95;;;2.40;;
40755;SDS011;26461;45.630;9.418;2022-09-09T01:16:04;6.75;;;3.58;;
40755;SDS011;26461;45.630;9.418;2022-09-09T01:19:24;7.78;;;4.25;;
40755;SDS011;26461;45.630;9.418;2022-09-09T01:27:06;18.35;;;4.13;;
40755;SDS011;26461;45.630;9.418;2022-09-09T01:30:18;6.68;;;3.88;;
40755;SDS011;26461;45.630;9.418;2022-09-09T01:33:30;6.78;;;3.08;;
40755;SDS011;26461;45.630;9.418;2022-09-09T01:36:49;4.07;;;3.05;;
40755;SDS011;26461;45.630;9.418;2022-09-09T01:39:57;5.97;;;2.60;;
40755;SDS011;26461;45.630;9.418;2022-09-09T01:43:09;8.95;;;4.05;;
40755;SDS011;26461;45.630;9.418;2022-09-09T01:46:20;10.82;;;3.75;;
40755;SDS011;26461;45.630;9.418;2022-09-09T01:49:32;7.70;;;3.35;;
40755;SDS011;26461;45.630;9.418;2022-09-09T01:52:45;10.15;;;3.38;;
40755;SDS011;26461;45.630;9.418;2022-09-09T02:02:59;7.35;;;2.42;;
40755;SDS011;26461;45.630;9.418;2022-09-09T02:09:47;9.57;;;2.95;;
40755;SDS011;26461;45.630;9.418;2022-09-09T02:13:10;10.32;;;4.15;;
40755;SDS011;26461;45.630;9.418;2022-09-09T02:16:39;12.40;;;4.70;;
40755;SDS011;26461;45.630;9.418;2022-09-09T02:19:54;5.32;;;2.30;;
40755;SDS011;26461;45.630;9.418;2022-09-09T02:23:21;7.72;;;4.00;;
40755;SDS011;26461;45.630;9.418;2022-09-09T02:26:32;12.35;;;3.58;;
40755;SDS011;26461;45.630;9.418;2022-09-09T02:29:48;4.95;;;3.38;;
40755;SDS011;26461;45.630;9.418;2022-09-09T02:33:11;4.43;;;1.90;;
40755;SDS011;26461;45.630;9.418;2022-09-09T02:36:28;6.00;;;3.05;;
40755;SDS011;26461;45.630;9.418;2022-09-09T02:39:42;7.57;;;3.97;;
40755;SDS011;26461;45.630;9.418;2022-09-09T02:42:56;4.65;;;2.30;;
40755;SDS011;26461;45.630;9.418;2022-09-09T02:56:25;5.05;;;1.80;;
40755;SDS011;26461;45.630;9.418;2022-09-09T02:59:40;9.80;;;3.50;;
40755;SDS011;26461;45.630;9.418;2022-09-09T03:02:52;13.85;;;2.55;;
40755;SDS011;26461;45.630;9.418;2022-09-09T03:06:03;13.00;;;2.47;;
40755;SDS011;26461;45.630;9.418;2022-09-09T03:09:14;5.07;;;2.33;;
40755;SDS011;26461;45.630;9.418;2022-09-09T03:12:26;7.30;;;4.32;;
40755;SDS011;26461;45.630;9.418;2022-09-09T03:15:36;4.40;;;2.22;;
40755;SDS011;26461;45.630;9.418;2022-09-09T03:18:51;6.70;;;1.80;;
40755;SDS011;26461;45.630;9.418;2022-09-09T03:22:01;5.72;;;3.00;;
40755;SDS011;26461;45.630;9.418;2022-09-09T03:25:12;4.55;;;1.65;;
40755;SDS011;26461;45.630;9.418;2022-09-09T03:28:23;4.78;;;1.05;;
40755;SDS011;26461;45.630;9.418;2022-09-09T03:31:39;11.15;;;3.80;;
40755;SDS011;26461;45.630;9.418;2022-09-09T03:34:45;4.50;;;2.50;;
40755;SDS011;26461;45.630;9.418;2022-09-09T03:37:56;4.57;;;2.10;;
40755;SDS011;26461;45.630;9.418;2022-09-09T03:41:02;4.55;;;2.33;;
40755;SDS011;26461;45.630;9.418;2022-09-09T03:44:07;8.45;;;2.30;;
40755;SDS011;26461;45.630;9.418;2022-09-09T03:47:19;6.53;;;2.75;;
40755;SDS011;26461;45.630;9.418;2022-09-09T03:50:37;3.53;;;1.83;;
40755;SDS011;26461;45.630;9.418;2022-09-09T03:53:47;6.82;;;2.22;;
40755;SDS011;26461;45.630;9.418;2022-09-09T03:56:57;6.22;;;2.30;;
40755;SDS011;26461;45.630;9.418;2022-09-09T04:00:07;5.10;;;2.72;;
40755;SDS011;26461;45.630;9.418;2022-09-09T04:03:27;4.05;;;1.65;;
40755;SDS011;26461;45.630;9.418;2022-09-09T04:06:37;6.28;;;3.15;;
40755;SDS011;26461;45.630;9.418;2022-09-09T04:09:47;8.10;;;3.65;;
40755;SDS011;26461;45.630;9.418;2022-09-09T04:12:52;8.63;;;3.25;;
40755;SDS011;26461;45.630;9.418;2022-09-09T04:16:03;6.90;;;3.50;;
40755;SDS011;26461;45.630;9.418;2022-09-09T04:19:14;10.10;;;5.15;;
40755;SDS011;26461;45.630;9.418;2022-09-09T04:26:06;7.38;;;3.58;;
40755;SDS011;26461;45.630;9.418;2022-09-09T04:29:22;10.43;;;3.78;;
40755;SDS011;26461;45.630;9.418;2022-09-09T04:32:33;8.63;;;4.13;;
40755;SDS011;26461;45.630;9.418;2022-09-09T04:35:45;10.68;;;4.63;;
40755;SDS011;26461;45.630;9.418;2022-09-09T04:38:59;8.05;;;4.40;;
40755;SDS011;26461;45.630;9.418;2022-09-09T04:42:11;6.55;;;4.63;;
40755;SDS011;26461;45.630;9.418;2022-09-09T04:45:21;8.88;;;4.32;;
40755;SDS011;26461;45.630;9.418;2022-09-09T04:48:31;4.75;;;2.30;;
40755;SDS011;26461;45.630;9.418;2022-09-09T04:51:43;4.70;;;1.92;;
40755;SDS011;26461;45.630;9.418;2022-09-09T04:54:54;2.75;;;1.15;;
40755;SDS011;26461;45.630;9.418;2022-09-09T04:58:05;3.17;;;0.70;;
40755;SDS011;26461;45.630;9.418;2022-09-09T05:01:17;4.00;;;1.25;;
40755;SDS011;26461;45.630;9.418;2022-09-09T05:04:30;4.82;;;0.93;;
40755;SDS011;26461;45.630;9.418;2022-09-09T05:07:42;4.20;;;0.50;;
40755;SDS011;26461;45.630;9.418;2022-09-09T05:10:52;1.80;;;1.05;;
40755;SDS011;26461;45.630;9.418;2022-09-09T05:14:02;2.97;;;0.73;;
40755;SDS011;26461;45.630;9.418;2022-09-09T05:17:13;2.80;;;0.50;;
40755;SDS011;26461;45.630;9.418;2022-09-09T05:20:24;2.50;;;0.77;;
40755;SDS011;26461;45.630;9.418;2022-09-09T05:23:34;5.15;;;0.50;;
40755;SDS011;26461;45.630;9.418;2022-09-09T05:26:46;2.40;;;0.50;;
40755;SDS011;26461;45.630;9.418;2022-09-09T05:29:57;4.43;;;1.20;;
40755;SDS011;26461;45.630;9.418;2022-09-09T05:33:08;2.20;;;0.40;;
40755;SDS011;26461;45.630;9.418;2022-09-09T05:36:20;2.45;;;0.50;;
40755;SDS011;26461;45.630;9.418;2022-09-09T05:39:31;1.60;;;0.40;;
40755;SDS011;26461;45.630;9.418;2022-09-09T05:42:43;2.28;;;0.40;;
40755;SDS011;26461;45.630;9.418;2022-09-09T05:49:10;1.80;;;0.40;;
40755;SDS011;26461;45.630;9.418;2022-09-09T05:52:20;3.03;;;0.50;;
40755;SDS011;26461;45.630;9.418;2022-09-09T05:55:33;2.47;;;0.60;;
40755;SDS011;26461;45.630;9.418;2022-09-09T05:58:38;6.60;;;0.73;;
40755;SDS011;26461;45.630;9.418;2022-09-09T06:01:49;2.08;;;0.60;;
40755;SDS011;26461;45.630;9.418;2022-09-09T06:05:08;3.97;;;0.77;;
40755;SDS011;26461;45.630;9.418;2022-09-09T06:08:19;2.42;;;0.63;;
40755;SDS011;26461;45.630;9.418;2022-09-09T06:11:30;5.30;;;0.70;;
40755;SDS011;26461;45.630;9.418;2022-09-09T06:14:41;2.55;;;0.52;;
40755;SDS011;26461;45.630;9.418;2022-09-09T06:17:55;3.70;;;0.57;;
40755;SDS011;26461;45.630;9.418;2022-09-09T06:21:05;2.45;;;0.50;;
40755;SDS011;26461;45.630;9.418;2022-09-09T06:24:18;1.95;;;0.50;;
40755;SDS011;26461;45.630;9.418;2022-09-09T06:27:26;3.35;;;1.48;;
40755;SDS011;26461;45.630;9.418;2022-09-09T06:30:32;3.83;;;0.68;;
40755;SDS011;26461;45.630;9.418;2022-09-09T06:33:43;3.60;;;0.70;;
40755;SDS011;26461;45.630;9.418;2022-09-09T06:36:53;1.80;;;0.50;;
40755;SDS011;26461;45.630;9.418;2022-09-09T06:40:14;2.08;;;0.50;;
40755;SDS011;26461;45.630;9.418;2022-09-09T06:43:25;1.70;;;0.40;;
40755;SDS011;26461;45.630;9.418;2022-09-09T06:46:37;3.08;;;0.90;;
40755;SDS011;26461;45.630;9.418;2022-09-09T06:49:53;2.25;;;0.50;;
40755;SDS011;26461;45.630;9.418;2022-09-09T06:53:03;2.03;;;0.60;;
40755;SDS011;26461;45.630;9.418;2022-09-09T06:59:26;3.28;;;1.40;;
40755;SDS011;26461;45.630;9.418;2022-09-09T07:02:37;4.80;;;0.93;;
40755;SDS011;26461;45.630;9.418;2022-09-09T07:05:53;3.50;;;0.82;;
40755;SDS011;26461;45.630;9.418;2022-09-09T07:09:06;4.10;;;0.63;;
40755;SDS011;26461;45.630;9.418;2022-09-09T07:12:20;7.88;;;0.80;;
40755;SDS011;26461;45.630;9.418;2022-09-09T07:15:34;3.10;;;0.90;;
40755;SDS011;26461;45.630;9.418;2022-09-09T07:18:45;6.20;;;0.90;;
40755;SDS011;26461;45.630;9.418;2022-09-09T07:21:55;2.08;;;0.50;;
40755;SDS011;26461;45.630;9.418;2022-09-09T07:25:06;2.60;;;1.20;;
40755;SDS011;26461;45.630;9.418;2022-09-09T07:28:18;3.55;;;0.45;;
40755;SDS011;26461;45.630;9.418;2022-09-09T07:31:30;5.00;;;1.10;;
40755;SDS011;26461;45.630;9.418;2022-09-09T07:34:46;4.10;;;0.75;;
40755;SDS011;26461;45.630;9.418;2022-09-09T07:38:00;2.67;;;0.70;;
40755;SDS011;26461;45.630;9.418;2022-09-09T07:41:15;1.80;;;0.40;;
40755;SDS011;26461;45.630;9.418;2022-09-09T07:44:28;3.05;;;0.93;;
40755;SDS011;26461;45.630;9.418;2022-09-09T07:47:47;4.15;;;0.90;;
40755;SDS011;26461;45.630;9.418;2022-09-09T07:51:03;3.35;;;2.80;;
40755;SDS011;26461;45.630;9.418;2022-09-09T07:54:19;4.25;;;1.40;;
40755;SDS011;26461;45.630;9.418;2022-09-09T07:57:29;2.35;;;0.50;;
40755;SDS011;26461;45.630;9.418;2022-09-09T08:00:41;2.58;;;0.60;;
40755;SDS011;26461;45.630;9.418;2022-09-09T08:03:53;2.38;;;0.50;;
40755;SDS011;26461;45.630;9.418;2022-09-09T08:07:07;6.78;;;1.35;;
40755;SDS011;26461;45.630;9.418;2022-09-09T08:10:23;2.17;;;0.82;;
40755;SDS011;26461;45.630;9.418;2022-09-09T08:13:35;2.63;;;0.93;;
40755;SDS011;26461;45.630;9.418;2022-09-09T08:16:47;2.83;;;1.15;;
40755;SDS011;26461;45.630;9.418;2022-09-09T08:20:00;4.38;;;0.80;;
40755;SDS011;26461;45.630;9.418;2022-09-09T08:23:15;2.72;;;0.68;;
40755;SDS011;26461;45.630;9.418;2022-09-09T08:26:29;5.20;;;1.05;;
40755;SDS011;26461;45.630;9.418;2022-09-09T08:29:40;4.00;;;0.90;;
40755;SDS011;26461;45.630;9.418;2022-09-09T08:32:51;2.55;;;0.95;;
40755;SDS011;26461;45.630;9.418;2022-09-09T08:36:01;3.25;;;0.60;;
40755;SDS011;26461;45.630;9.418;2022-09-09T08:39:13;2.67;;;0.75;;
40755;SDS011;26461;45.630;9.418;2022-09-09T08:45:50;5.15;;;0.80;;
40755;SDS011;26461;45.630;9.418;2022-09-09T08:49:21;1.80;;;0.50;;
40755;SDS011;26461;45.630;9.418;2022-09-09T08:56:10;2.03;;;0.68;;
40755;SDS011;26461;45.630;9.418;2022-09-09T08:59:33;1.70;;;0.40;;
40755;SDS011;26461;45.630;9.418;2022-09-09T09:02:42;3.80;;;0.93;;
40755;SDS011;26461;45.630;9.418;2022-09-09T09:13:03;3.08;;;0.50;;
40755;SDS011;26461;45.630;9.418;2022-09-09T09:16:20;2.67;;;0.45;;
40755;SDS011;26461;45.630;9.418;2022-09-09T09:19:48;2.38;;;0.60;;
40755;SDS011;26461;45.630;9.418;2022-09-09T09:23:00;3.97;;;0.77;;
40755;SDS011;26461;45.630;9.418;2022-09-09T09:26:12;2.13;;;0.47;;
40755;SDS011;26461;45.630;9.418;2022-09-09T09:29:19;8.13;;;0.85;;
40755;SDS011;26461;45.630;9.418;2022-09-09T09:32:31;3.90;;;0.90;;
40755;SDS011;26461;45.630;9.418;2022-09-09T09:35:44;1.60;;;0.40;;
40755;SDS011;26461;45.630;9.418;2022-09-09T09:39:00;2.83;;;0.50;;
40755;SDS011;26461;45.630;9.418;2022-09-09T09:42:18;2.08;;;0.70;;
40755;SDS011;26461;45.630;9.418;2022-09-09T09:45:33;1.70;;;0.40;;
40755;SDS011;26461;45.630;9.418;2022-09-09T09:48:59;2.50;;;0.50;;
40755;SDS011;26461;45.630;9.418;2022-09-09T09:52:17;2.15;;;0.60;;
40755;SDS011;26461;45.630;9.418;2022-09-09T09:55:34;3.10;;;0.50;;
40755;SDS011;26461;45.630;9.418;2022-09-09T09:58:50;2.15;;;0.60;;
40755;SDS011;26461;45.630;9.418;2022-09-09T10:05:27;2.40;;;0.40;;
40755;SDS011;26461;45.630;9.418;2022-09-09T10:08:46;1.80;;;0.60;;
40755;SDS011;26461;45.630;9.418;2022-09-09T10:12:18;11.15;;;0.82;;
40755;SDS011;26461;45.630;9.418;2022-09-09T10:19:16;4.38;;;0.73;;
40755;SDS011;26461;45.630;9.418;2022-09-09T10:22:28;2.40;;;0.47;;
40755;SDS011;26461;45.630;9.418;2022-09-09T10:29:22;2.13;;;0.40;;
40755;SDS011;26461;45.630;9.418;2022-09-09T10:36:15;1.70;;;0.40;;
40755;SDS011;26461;45.630;9.418;2022-09-09T10:39:37;2.10;;;0.50;;
40755;SDS011;26461;45.630;9.418;2022-09-09T10:42:51;2.17;;;0.50;;
40755;SDS011;26461;45.630;9.418;2022-09-09T10:46:09;2.13;;;0.50;;
40755;SDS011;26461;45.630;9.418;2022-09-09T10:49:57;2.03;;;0.50;;
40755;SDS011;26461;45.630;9.418;2022-09-09T10:53:34;2.78;;;0.88;;
40755;SDS011;26461;45.630;9.418;2022-09-09T11:00:53;2.85;;;0.50;;
40755;SDS011;26461;45.630;9.418;2022-09-09T11:04:17;2.15;;;0.40;;
40755;SDS011;26461;45.630;9.418;2022-09-09T11:07:42;1.90;;;0.60;;
40755;SDS011;26461;45.630;9.418;2022-09-09T11:11:02;2.47;;;0.80;;
40755;SDS011;26461;45.630;9.418;2022-09-09T11:14:22;1.80;;;0.50;;
40755;SDS011;26461;45.630;9.418;2022-09-09T11:17:42;4.35;;;0.60;;
40755;SDS011;26461;45.630;9.418;2022-09-09T11:20:59;1.90;;;0.70;;
40755;SDS011;26461;45.630;9.418;2022-09-09T11:24:33;2.22;;;0.40;;
40755;SDS011;26461;45.630;9.418;2022-09-09T11:34:51;2.08;;;0.50;;
40755;SDS011;26461;45.630;9.418;2022-09-09T11:41:39;1.90;;;0.40;;
40755;SDS011;26461;45.630;9.418;2022-09-09T11:44:49;2.38;;;0.50;;
40755;SDS011;26461;45.630;9.418;2022-09-09T11:48:00;1.83;;;0.40;;
40755;SDS011;26461;45.630;9.418;2022-09-09T11:51:13;2.45;;;0.60;;
40755;SDS011;26461;45.630;9.418;2022-09-09T11:54:30;3.15;;;0.47;;
40755;SDS011;26461;45.630;9.418;2022-09-09T11:57:41;2.00;;;0.50;;
40755;SDS011;26461;45.630;9.418;2022-09-09T12:00:52;2.30;;;0.45;;
40755;SDS011;26461;45.630;9.418;2022-09-09T12:04:09;3.90;;;0.80;;
40755;SDS011;26461;45.630;9.418;2022-09-09T12:10:52;2.50;;;0.50;;
40755;SDS011;26461;45.630;9.418;2022-09-09T12:14:18;1.70;;;0.40;;
40755;SDS011;26461;45.630;9.418;2022-09-09T12:17:52;1.73;;;0.40;;
40755;SDS011;26461;45.630;9.418;2022-09-09T12:21:28;1.90;;;0.40;;
40755;SDS011;26461;45.630;9.418;2022-09-09T12:25:24;3.47;;;0.73;;
40755;SDS011;26461;45.630;9.418;2022-09-09T12:29:32;2.88;;;0.60;;
40755;SDS011;26461;45.630;9.418;2022-09-09T12:32:58;2.45;;;0.40;;
40755;SDS011;26461;45.630;9.418;2022-09-09T12:36:27;3.35;;;0.50;;
40755;SDS011;26461;45.630;9.418;2022-09-09T12:39:48;2.70;;;0.60;;
40755;SDS011;26461;45.630;9.418;2022-09-09T12:43:23;2.88;;;0.50;;
40755;SDS011;26461;45.630;9.418;2022-09-09T12:49:49;5.63;;;0.80;;
40755;SDS011;26461;45.630;9.418;2022-09-09T12:53:02;3.95;;;0.75;;
40755;SDS011;26461;45.630;9.418;2022-09-09T12:56:18;2.10;;;0.60;;
40755;SDS011;26461;45.630;9.418;2022-09-09T12:59:40;2.17;;;0.50;;
40755;SDS011;26461;45.630;9.418;2022-09-09T13:02:52;1.98;;;0.40;;
40755;SDS011;26461;45.630;9.418;2022-09-09T13:06:11;2.85;;;0.50;;
40755;SDS011;26461;45.630;9.418;2022-09-09T13:09:23;2.00;;;0.43;;
40755;SDS011;26461;45.630;9.418;2022-09-09T13:12:33;2.38;;;0.50;;
40755;SDS011;26461;45.630;9.418;2022-09-09T13:15:53;2.30;;;0.70;;
40755;SDS011;26461;45.630;9.418;2022-09-09T13:19:10;1.90;;;0.50;;
40755;SDS011;26461;45.630;9.418;2022-09-09T13:22:31;2.17;;;0.60;;
40755;SDS011;26461;45.630;9.418;2022-09-09T13:29:32;2.10;;;0.60;;
40755;SDS011;26461;45.630;9.418;2022-09-09T13:32:42;7.90;;;0.88;;
40755;SDS011;26461;45.630;9.418;2022-09-09T13:35:59;4.13;;;1.20;;
40755;SDS011;26461;45.630;9.418;2022-09-09T13:39:16;6.25;;;0.60;;
40755;SDS011;26461;45.630;9.418;2022-09-09T13:42:29;1.92;;;0.50;;
40755;SDS011;26461;45.630;9.418;2022-09-09T13:45:52;4.45;;;0.70;;
40755;SDS011;26461;45.630;9.418;2022-09-09T13:52:18;2.60;;;0.57;;
40755;SDS011;26461;45.630;9.418;2022-09-09T13:55:29;2.15;;;0.60;;
40755;SDS011;26461;45.630;9.418;2022-09-09T13:58:40;2.42;;;0.73;;
40755;SDS011;26461;45.630;9.418;2022-09-09T14:01:50;3.85;;;0.70;;
40755;SDS011;26461;45.630;9.418;2022-09-09T14:05:01;3.35;;;1.02;;
40755;SDS011;26461;45.630;9.418;2022-09-09T14:08:15;2.35;;;0.85;;
40755;SDS011;26461;45.630;9.418;2022-09-09T14:11:30;2.13;;;0.77;;
40755;SDS011;26461;45.630;9.418;2022-09-09T14:14:40;3.35;;;1.08;;
40755;SDS011;26461;45.630;9.418;2022-09-09T14:17:51;2.25;;;0.82;;
40755;SDS011;26461;45.630;9.418;2022-09-09T14:21:02;2.50;;;0.55;;
40755;SDS011;26461;45.630;9.418;2022-09-09T14:24:11;3.55;;;0.75;;
40755;SDS011;26461;45.630;9.418;2022-09-09T14:27:21;6.30;;;1.17;;
40755;SDS011;26461;45.630;9.418;2022-09-09T14:30:31;2.55;;;0.60;;
40755;SDS011;26461;45.630;9.418;2022-09-09T14:33:41;2.05;;;0.50;;
40755;SDS011;26461;45.630;9.418;2022-09-09T14:36:51;2.30;;;0.90;;
40755;SDS011;26461;45.630;9.418;2022-09-09T14:40:01;2.20;;;0.60;;
40755;SDS011;26461;45.630;9.418;2022-09-09T14:43:11;2.30;;;0.60;;
40755;SDS011;26461;45.630;9.418;2022-09-09T14:46:21;3.30;;;1.05;;
40755;SDS011;26461;45.630;9.418;2022-09-09T14:49:31;3.97;;;1.73;;
40755;SDS011;26461;45.630;9.418;2022-09-09T14:52:41;2.65;;;0.80;;
40755;SDS011;26461;45.630;9.418;2022-09-09T14:55:51;2.50;;;1.20;;
40755;SDS011;26461;45.630;9.418;2022-09-09T14:59:01;3.05;;;0.70;;
40755;SDS011;26461;45.630;9.418;2022-09-09T15:02:11;7.28;;;1.15;;
40755;SDS011;26461;45.630;9.418;2022-09-09T15:05:22;3.03;;;1.17;;
40755;SDS011;26461;45.630;9.418;2022-09-09T15:08:34;2.80;;;0.98;;
40755;SDS011;26461;45.630;9.418;2022-09-09T15:11:45;3.50;;;1.00;;
40755;SDS011;26461;45.630;9.418;2022-09-09T15:14:54;3.15;;;0.75;;
40755;SDS011;26461;45.630;9.418;2022-09-09T15:18:05;2.40;;;1.10;;
40755;SDS011;26461;45.630;9.418;2022-09-09T15:21:16;3.05;;;0.82;;
40755;SDS011;26461;45.630;9.418;2022-09-09T15:24:29;4.45;;;1.08;;
40755;SDS011;26461;45.630;9.418;2022-09-09T15:27:38;2.83;;;0.90;;
40755;SDS011;26461;45.630;9.418;2022-09-09T15:30:49;4.03;;;1.27;;
40755;SDS011;26461;45.630;9.418;2022-09-09T15:34:02;7.50;;;2.65;;
40755;SDS011;26461;45.630;9.418;2022-09-09T15:37:13;2.53;;;0.95;;
40755;SDS011;26461;45.630;9.418;2022-09-09T15:40:23;2.85;;;0.80;;
40755;SDS011;26461;45.630;9.418;2022-09-09T15:43:28;2.95;;;1.00;;
40755;SDS011;26461;45.630;9.418;2022-09-09T15:46:39;3.05;;;1.85;;
40755;SDS011;26461;45.630;9.418;2022-09-09T15:49:50;2.40;;;0.63;;
40755;SDS011;26461;45.630;9.418;2022-09-09T15:53:00;2.30;;;0.70;;
40755;SDS011;26461;45.630;9.418;2022-09-09T15:56:09;2.90;;;1.98;;
40755;SDS011;26461;45.630;9.418;2022-09-09T15:59:20;3.55;;;2.30;;
40755;SDS011;26461;45.630;9.418;2022-09-09T16:02:30;3.00;;;0.65;;
40755;SDS011;26461;45.630;9.418;2022-09-09T16:05:40;4.93;;;0.80;;
40755;SDS011;26461;45.630;9.418;2022-09-09T16:08:52;3.47;;;0.73;;
40755;SDS011;26461;45.630;9.418;2022-09-09T16:12:03;2.55;;;1.00;;
40755;SDS011;26461;45.630;9.418;2022-09-09T16:15:20;2.65;;;0.80;;
40755;SDS011;26461;45.630;9.418;2022-09-09T16:18:36;4.32;;;0.70;;
40755;SDS011;26461;45.630;9.418;2022-09-09T16:21:48;2.65;;;0.60;;
40755;SDS011;26461;45.630;9.418;2022-09-09T16:24:59;2.60;;;1.05;;
40755;SDS011;26461;45.630;9.418;2022-09-09T16:28:08;2.05;;;0.60;;
40755;SDS011;26461;45.630;9.418;2022-09-09T16:31:19;2.28;;;0.70;;
40755;SDS011;26461;45.630;9.418;2022-09-09T16:34:31;3.67;;;0.95;;
40755;SDS011;26461;45.630;9.418;2022-09-09T16:37:43;2.80;;;0.80;;
40755;SDS011;26461;45.630;9.418;2022-09-09T16:40:59;4.05;;;0.70;;
40755;SDS011;26461;45.630;9.418;2022-09-09T16:44:12;3.05;;;1.13;;
40755;SDS011;26461;45.630;9.418;2022-09-09T16:47:25;4.05;;;1.25;;
40755;SDS011;26461;45.630;9.418;2022-09-09T16:50:37;2.75;;;0.77;;
40755;SDS011;26461;45.630;9.418;2022-09-09T16:53:48;2.60;;;0.60;;
40755;SDS011;26461;45.630;9.418;2022-09-09T16:56:59;3.60;;;0.90;;
40755;SDS011;26461;45.630;9.418;2022-09-09T17:00:09;4.35;;;1.40;;
40755;SDS011;26461;45.630;9.418;2022-09-09T17:03:20;6.70;;;1.00;;
40755;SDS011;26461;45.630;9.418;2022-09-09T17:06:30;3.10;;;0.80;;
40755;SDS011;26461;45.630;9.418;2022-09-09T17:09:43;2.42;;;0.80;;
40755;SDS011;26461;45.630;9.418;2022-09-09T17:12:54;2.85;;;1.00;;
40755;SDS011;26461;45.630;9.418;2022-09-09T17:16:04;4.60;;;1.98;;
40755;SDS011;26461;45.630;9.418;2022-09-09T17:19:10;2.10;;;0.85;;
40755;SDS011;26461;45.630;9.418;2022-09-09T17:22:21;3.38;;;0.90;;
40755;SDS011;26461;45.630;9.418;2022-09-09T17:25:33;3.20;;;0.98;;
40755;SDS011;26461;45.630;9.418;2022-09-09T17:28:44;2.13;;;0.73;;
40755;SDS011;26461;45.630;9.418;2022-09-09T17:31:55;4.45;;;0.88;;
40755;SDS011;26461;45.630;9.418;2022-09-09T17:35:05;2.17;;;1.15;;
40755;SDS011;26461;45.630;9.418;2022-09-09T17:38:15;2.47;;;0.75;;
40755;SDS011;26461;45.630;9.418;2022-09-09T17:41:27;8.43;;;1.40;;
40755;SDS011;26461;45.630;9.418;2022-09-09T17:44:48;3.60;;;1.05;;
40755;SDS011;26461;45.630;9.418;2022-09-09T17:47:58;2.50;;;1.00;;
40755;SDS011;26461;45.630;9.418;2022-09-09T17:51:11;2.95;;;0.90;;
40755;SDS011;26461;45.630;9.418;2022-09-09T17:54:22;3.58;;;1.35;;
40755;SDS011;26461;45.630;9.418;2022-09-09T17:57:32;3.17;;;0.90;;
40755;SDS011;26461;45.630;9.418;2022-09-09T18:00:42;8.00;;;1.50;;
40755;SDS011;26461;45.630;9.418;2022-09-09T18:03:53;2.67;;;0.93;;
40755;SDS011;26461;45.630;9.418;2022-09-09T18:07:05;4.57;;;2.78;;
40755;SDS011;26461;45.630;9.418;2022-09-09T18:10:16;4.82;;;1.45;;
40755;SDS011;26461;45.630;9.418;2022-09-09T18:13:26;5.00;;;1.27;;
40755;SDS011;26461;45.630;9.418;2022-09-09T18:16:36;4.65;;;2.28;;
40755;SDS011;26461;45.630;9.418;2022-09-09T18:19:46;3.30;;;1.13;;
40755;SDS011;26461;45.630;9.418;2022-09-09T18:22:58;3.13;;;2.05;;
40755;SDS011;26461;45.630;9.418;2022-09-09T18:29:20;3.40;;;1.70;;
40755;SDS011;26461;45.630;9.418;2022-09-09T18:32:32;3.65;;;0.98;;
40755;SDS011;26461;45.630;9.418;2022-09-09T18:35:42;2.97;;;1.63;;
40755;SDS011;26461;45.630;9.418;2022-09-09T18:38:52;13.65;;;3.00;;
40755;SDS011;26461;45.630;9.418;2022-09-09T18:42:05;4.35;;;3.33;;
40755;SDS011;26461;45.630;9.418;2022-09-09T18:45:15;5.78;;;2.25;;
40755;SDS011;26461;45.630;9.418;2022-09-09T18:48:26;4.03;;;1.60;;
40755;SDS011;26461;45.630;9.418;2022-09-09T18:51:37;8.07;;;2.97;;
40755;SDS011;26461;45.630;9.418;2022-09-09T18:54:49;5.40;;;2.35;;
40755;SDS011;26461;45.630;9.418;2022-09-09T18:57:59;6.50;;;2.15;;
40755;SDS011;26461;45.630;9.418;2022-09-09T19:01:11;5.88;;;1.83;;
40755;SDS011;26461;45.630;9.418;2022-09-09T19:04:22;7.25;;;2.10;;
40755;SDS011;26461;45.630;9.418;2022-09-09T19:07:34;6.68;;;2.40;;
40755;SDS011;26461;45.630;9.418;2022-09-09T19:10:45;7.82;;;2.30;;
40755;SDS011;26461;45.630;9.418;2022-09-09T19:13:52;4.45;;;1.83;;
40755;SDS011;26461;45.630;9.418;2022-09-09T19:17:04;7.35;;;1.48;;
40755;SDS011;26461;45.630;9.418;2022-09-09T19:20:13;4.00;;;1.73;;
40755;SDS011;26461;45.630;9.418;2022-09-09T19:23:20;6.05;;;1.83;;
40755;SDS011;26461;45.630;9.418;2022-09-09T19:26:30;5.28;;;3.35;;
40755;SDS011;26461;45.630;9.418;2022-09-09T19:29:45;9.18;;;3.70;;
40755;SDS011;26461;45.630;9.418;2022-09-09T19:32:52;13.48;;;1.63;;
40755;SDS011;26461;45.630;9.418;2022-09-09T19:36:05;5.45;;;4.20;;
40755;SDS011;26461;45.630;9.418;2022-09-09T19:39:18;7.40;;;4.05;;
40755;SDS011;26461;45.630;9.418;2022-09-09T19:42:28;4.60;;;2.53;;
40755;SDS011;26461;45.630;9.418;2022-09-09T19:45:39;5.90;;;1.38;;
40755;SDS011;26461;45.630;9.418;2022-09-09T19:48:49;3.70;;;0.90;;
40755;SDS011;26461;45.630;9.418;2022-09-09T19:51:59;4.40;;;0.80;;
40755;SDS011;26461;45.630;9.418;2022-09-09T19:55:11;3.08;;;1.08;;
40755;SDS011;26461;45.630;9.418;2022-09-09T19:58:21;4.03;;;1.25;;
40755;SDS011;26461;45.630;9.418;2022-09-09T20:01:27;6.22;;;2.35;;
40755;SDS011;26461;45.630;9.418;2022-09-09T20:04:38;5.55;;;3.33;;
40755;SDS011;26461;45.630;9.418;2022-09-09T20:07:50;4.40;;;1.52;;
40755;SDS011;26461;45.630;9.418;2022-09-09T20:11:02;4.82;;;2.70;;
40755;SDS011;26461;45.630;9.418;2022-09-09T20:14:09;4.60;;;2.05;;
40755;SDS011;26461;45.630;9.418;2022-09-09T20:17:22;4.38;;;2.40;;
40755;SDS011;26461;45.630;9.418;2022-09-09T20:20:32;4.55;;;1.40;;
40755;SDS011;26461;45.630;9.418;2022-09-09T20:23:43;2.90;;;1.77;;
40755;SDS011;26461;45.630;9.418;2022-09-09T20:26:55;3.97;;;1.30;;
40755;SDS011;26461;45.630;9.418;2022-09-09T20:30:06;3.35;;;1.20;;
40755;SDS011;26461;45.630;9.418;2022-09-09T20:33:16;2.70;;;1.27;;
40755;SDS011;26461;45.630;9.418;2022-09-09T20:36:28;4.60;;;1.90;;
40755;SDS011;26461;45.630;9.418;2022-09-09T20:39:40;7.22;;;2.20;;
40755;SDS011;26461;45.630;9.418;2022-09-09T20:42:50;3.28;;;1.20;;
40755;SDS011;26461;45.630;9.418;2022-09-09T20:46:01;3.45;;;1.02;;
40755;SDS011;26461;45.630;9.418;2022-09-09T20:49:12;4.65;;;2.28;;
40755;SDS011;26461;45.630;9.418;2022-09-09T20:52:25;4.00;;;1.17;;
40755;SDS011;26461;45.630;9.418;2022-09-09T20:55:37;5.35;;;3.05;;
40755;SDS011;26461;45.630;9.418;2022-09-09T20:58:47;8.50;;;2.05;;
40755;SDS011;26461;45.630;9.418;2022-09-09T21:01:57;6.07;;;1.52;;
40755;SDS011;26461;45.630;9.418;2022-09-09T21:05:05;3.63;;;1.80;;
40755;SDS011;26461;45.630;9.418;2022-09-09T21:08:11;3.58;;;1.35;;
40755;SDS011;26461;45.630;9.418;2022-09-09T21:11:23;5.50;;;1.15;;
40755;SDS011;26461;45.630;9.418;2022-09-09T21:14:34;2.67;;;0.80;;
40755;SDS011;26461;45.630;9.418;2022-09-09T21:17:46;7.07;;;1.70;;
40755;SDS011;26461;45.630;9.418;2022-09-09T21:20:51;3.03;;;1.20;;
40755;SDS011;26461;45.630;9.418;2022-09-09T21:23:56;2.90;;;1.13;;
40755;SDS011;26461;45.630;9.418;2022-09-09T21:27:09;3.10;;;0.88;;